Time;durP1;ratioP1;P1;durP2;ratioP2;P2;SDS_P1;SDS_P2;PMS_P1;PMS_P2;Temp;Humidity;BMP_temperature;BMP_pressure;BME280_temperature;BME280_humidity;BME280_pressure;Samples;Min_cycle;Max_cycle;Signal;HPM_P1;HPM_P2
2021/10/26 00:02:20;;;;;;;143.48;64.70;;;;;;;;;;5034026;28;20068;-87
2021/10/26 00:04:46;;;;;;;160.02;65.85;;;;;;;;;;5033726;28;20033;-87
2021/10/26 00:07:11;;;;;;;139.80;63.30;;;;;;;;;;5033787;28;20014;-87
2021/10/26 00:09:36;;;;;;;150.25;64.93;;;;;;;;;;5015994;28;20916;-87
2021/10/26 00:12:03;;;;;;;144.25;64.10;;;;;;;;;;5033652;28;20418;-87
2021/10/26 00:14:29;;;;;;;121.57;59.15;;;;;;;;;;5033440;28;20108;-87
2021/10/26 00:16:55;;;;;;;168.02;69.97;;;;;;;;;;5033837;28;20048;-87
2021/10/26 00:19:21;;;;;;;167.43;71.28;;;;;;;;;;5020302;28;20021;-87
2021/10/26 00:21:46;;;;;;;160.93;68.97;;;;;;;;;;5033656;28;20820;-87
2021/10/26 00:24:11;;;;;;;136.30;67.35;;;;;;;;;;5015839;28;20029;-87
2021/10/26 00:26:37;;;;;;;137.35;65.15;;;;;;;;;;5033575;28;20052;-87
2021/10/26 00:29:02;;;;;;;162.55;71.32;;;;;;;;;;5033452;28;20017;-87
2021/10/26 00:31:27;;;;;;;152.82;68.78;;;;;;;;;;5033242;28;20025;-87
2021/10/26 00:33:53;;;;;;;156.77;72.45;;;;;;;;;;5033205;28;20029;-87
2021/10/26 00:36:18;;;;;;;167.77;70.07;;;;;;;;;;5032065;28;20101;-87
2021/10/26 00:38:44;;;;;;;147.77;66.65;;;;;;;;;;5012341;28;20057;-87
2021/10/26 00:41:09;;;;;;;203.23;76.97;;;;;;;;;;5015283;28;20460;-87
2021/10/26 00:43:34;;;;;;;171.70;74.32;;;;;;;;;;5013536;28;20060;-87
2021/10/26 00:45:59;;;;;;;183.93;75.10;;;;;;;;;;5012421;28;20112;-87
2021/10/26 00:48:25;;;;;;;160.55;71.78;;;;;;;;;;5012479;28;20096;-87
2021/10/26 00:50:50;;;;;;;133.95;67.07;;;;;;;;;;5030129;28;20072;-87
2021/10/26 00:53:17;;;;;;;147.13;70.13;;;;;;;;;;5012367;28;20052;-87
2021/10/26 00:55:42;;;;;;;133.30;67.40;;;;;;;;;;5030359;28;20129;-87
2021/10/26 00:58:07;;;;;;;137.45;67.07;;;;;;;;;;5030256;28;20105;-87
2021/10/26 01:00:33;;;;;;;152.00;71.80;;;;;;;;;;5012451;28;20033;-87
2021/10/26 01:02:58;;;;;;;132.43;66.55;;;;;;;;;;5030206;28;20276;-87
2021/10/26 01:05:23;;;;;;;128.10;66.30;;;;;;;;;;5012328;28;20513;-87
2021/10/26 01:07:49;;;;;;;164.55;73.45;;;;;;;;;;5014769;28;20032;-87
2021/10/26 01:10:14;;;;;;;134.35;66.45;;;;;;;;;;5012205;28;20057;-87
2021/10/26 01:12:39;;;;;;;133.13;68.75;;;;;;;;;;5012282;28;20098;-87
2021/10/26 01:15:06;;;;;;;134.57;70.43;;;;;;;;;;5029891;28;20050;-87
2021/10/26 01:17:31;;;;;;;139.45;68.28;;;;;;;;;;5012290;28;20333;-87
2021/10/26 01:19:57;;;;;;;123.10;65.55;;;;;;;;;;5029981;28;20104;-87
2021/10/26 01:22:27;;;;;;;135.85;69.05;;;;;;;;;;5012267;28;20026;-87
2021/10/26 01:24:52;;;;;;;118.97;67.65;;;;;;;;;;5011913;28;20116;-87
2021/10/26 01:27:18;;;;;;;125.43;66.90;;;;;;;;;;5030347;28;20156;-87
2021/10/26 01:29:43;;;;;;;120.30;66.82;;;;;;;;;;5012762;28;20022;-88
2021/10/26 01:32:10;;;;;;;125.75;65.65;;;;;;;;;;5012390;28;20407;-87
2021/10/26 01:34:36;;;;;;;116.43;66.72;;;;;;;;;;5034956;28;20021;-87
2021/10/26 01:37:02;;;;;;;136.90;69.88;;;;;;;;;;5012082;28;20474;-87
2021/10/26 01:39:28;;;;;;;127.70;67.60;;;;;;;;;;5012237;28;20021;-87
2021/10/26 01:41:54;;;;;;;116.90;65.32;;;;;;;;;;5011949;28;20124;-88
2021/10/26 01:44:19;;;;;;;115.50;65.50;;;;;;;;;;5011910;28;20132;-87
2021/10/26 01:46:44;;;;;;;110.20;65.18;;;;;;;;;;5011894;28;20397;-87
2021/10/26 01:49:10;;;;;;;110.70;64.72;;;;;;;;;;5030897;28;20028;-87
2021/10/26 01:51:35;;;;;;;116.57;66.97;;;;;;;;;;5033319;28;20025;-87
2021/10/26 01:54:00;;;;;;;129.23;68.57;;;;;;;;;;5033344;28;20017;-87
2021/10/26 01:56:25;;;;;;;125.67;69.23;;;;;;;;;;5015503;28;20265;-87
2021/10/26 01:58:50;;;;;;;109.30;60.67;;;;;;;;;;5015478;28;20290;-87
2021/10/26 02:01:16;;;;;;;107.85;62.63;;;;;;;;;;5015538;28;20021;-87
2021/10/26 02:03:41;;;;;;;109.43;62.67;;;;;;;;;;5026556;28;20033;-87
2021/10/26 02:06:06;;;;;;;99.97;58.25;;;;;;;;;;5035797;28;20733;-87
2021/10/26 02:08:31;;;;;;;106.13;58.67;;;;;;;;;;5015127;28;20436;-87
2021/10/26 02:10:56;;;;;;;90.45;50.97;;;;;;;;;;5014996;28;20326;-87
2021/10/26 02:13:22;;;;;;;96.77;56.83;;;;;;;;;;5032825;28;20021;-87
2021/10/26 02:15:47;;;;;;;95.88;54.40;;;;;;;;;;5014969;28;20053;-87
2021/10/26 02:18:12;;;;;;;96.88;53.97;;;;;;;;;;5015020;28;20022;-87
2021/10/26 02:20:38;;;;;;;98.97;54.37;;;;;;;;;;5032707;28;20148;-87
2021/10/26 02:23:03;;;;;;;100.32;55.00;;;;;;;;;;5032829;28;20261;-87
2021/10/26 02:25:28;;;;;;;96.00;53.35;;;;;;;;;;5032796;28;20017;-87
2021/10/26 02:27:54;;;;;;;110.53;52.47;;;;;;;;;;5017362;28;20028;-87
2021/10/26 02:30:19;;;;;;;88.10;48.58;;;;;;;;;;5017951;28;20029;-87
2021/10/26 02:32:44;;;;;;;82.80;44.40;;;;;;;;;;5032525;28;20029;-87
2021/10/26 02:35:09;;;;;;;67.93;39.13;;;;;;;;;;5032539;28;20280;-87
2021/10/26 02:37:34;;;;;;;76.13;41.67;;;;;;;;;;5032681;28;20028;-87
2021/10/26 02:40:00;;;;;;;75.07;38.60;;;;;;;;;;5014507;28;20622;-87
2021/10/26 02:42:25;;;;;;;80.53;40.92;;;;;;;;;;5014643;28;20260;-87
2021/10/26 02:44:50;;;;;;;69.50;38.70;;;;;;;;;;5014358;28;20124;-87
2021/10/26 02:47:15;;;;;;;78.67;39.07;;;;;;;;;;5032318;28;20279;-87
2021/10/26 02:49:40;;;;;;;76.10;38.90;;;;;;;;;;5014260;28;20263;-87
2021/10/26 02:52:05;;;;;;;55.13;30.47;;;;;;;;;;5032189;28;20253;-87
2021/10/26 02:54:31;;;;;;;62.13;32.47;;;;;;;;;;5014060;28;20720;-87
2021/10/26 02:56:56;;;;;;;60.37;32.97;;;;;;;;;;5032104;28;20271;-87
2021/10/26 02:59:24;;;;;;;85.67;37.70;;;;;;;;;;5033965;28;20259;-87
2021/10/26 03:01:49;;;;;;;74.60;36.38;;;;;;;;;;5014328;28;20252;-87
2021/10/26 03:04:14;;;;;;;72.18;37.00;;;;;;;;;;5031884;28;20441;-87
2021/10/26 03:06:40;;;;;;;71.40;36.42;;;;;;;;;;5031951;28;20018;-87
2021/10/26 03:09:05;;;;;;;71.50;36.67;;;;;;;;;;5031872;28;20688;-87
2021/10/26 03:11:30;;;;;;;77.78;37.28;;;;;;;;;;5013952;28;20475;-87
2021/10/26 03:13:55;;;;;;;108.22;43.92;;;;;;;;;;5031745;28;20544;-87
2021/10/26 03:16:21;;;;;;;75.03;37.22;;;;;;;;;;5031452;28;20099;-87
2021/10/26 03:18:46;;;;;;;79.23;38.43;;;;;;;;;;5013990;28;20112;-87
2021/10/26 03:21:11;;;;;;;81.70;40.03;;;;;;;;;;5013588;28;20260;-87
2021/10/26 03:23:36;;;;;;;147.63;50.20;;;;;;;;;;5031692;28;20037;-87
2021/10/26 03:26:02;;;;;;;162.55;54.60;;;;;;;;;;5031541;28;20339;-87
2021/10/26 03:28:27;;;;;;;83.93;39.85;;;;;;;;;;5019516;28;20048;-87
2021/10/26 03:30:53;;;;;;;127.38;49.45;;;;;;;;;;5031353;28;20096;-87
2021/10/26 03:33:18;;;;;;;81.30;39.80;;;;;;;;;;5013601;28;20025;-87
2021/10/26 03:35:43;;;;;;;109.38;44.70;;;;;;;;;;5013575;28;20029;-87
2021/10/26 03:38:09;;;;;;;81.10;39.70;;;;;;;;;;5031593;28;20166;-87
2021/10/26 03:40:34;;;;;;;119.57;47.15;;;;;;;;;;5031260;28;20324;-87
2021/10/26 03:42:59;;;;;;;143.80;51.55;;;;;;;;;;5013415;28;20028;-87
2021/10/26 03:45:24;;;;;;;110.00;43.63;;;;;;;;;;5013287;28;20508;-87
2021/10/26 03:47:50;;;;;;;95.95;39.92;;;;;;;;;;5013345;28;20116;-87
2021/10/26 03:50:15;;;;;;;53.30;30.00;;;;;;;;;;5035799;28;20064;-87
2021/10/26 03:52:41;;;;;;;89.35;37.80;;;;;;;;;;5014356;28;20272;-87
2021/10/26 03:55:07;;;;;;;69.22;32.03;;;;;;;;;;5013157;28;20385;-87
2021/10/26 03:57:32;;;;;;;64.03;31.50;;;;;;;;;;5031168;28;20485;-87
2021/10/26 03:59:58;;;;;;;58.40;30.00;;;;;;;;;;5013135;28;20040;-87
2021/10/26 04:02:28;;;;;;;102.32;38.47;;;;;;;;;;5013176;28;20022;-87
2021/10/26 04:04:58;;;;;;;57.40;30.02;;;;;;;;;;5012847;28;20496;-88
2021/10/26 04:07:24;;;;;;;52.83;29.05;;;;;;;;;;5013025;28;20025;-88
2021/10/26 04:09:54;;;;;;;75.15;33.17;;;;;;;;;;5030743;28;20362;-88
2021/10/26 04:12:25;;;;;;;87.88;36.17;;;;;;;;;;5012475;28;20032;-88
2021/10/26 04:14:50;;;;;;;;;;;;;;;;;;5030971;28;20567;-88
2021/10/26 04:17:16;;;;;;;67.88;33.55;;;;;;;;;;5012863;28;20019;-88
2021/10/26 04:19:41;;;;;;;86.37;36.83;;;;;;;;;;5033275;28;20573;-88
2021/10/26 04:22:10;;;;;;;68.72;34.10;;;;;;;;;;5012928;28;20260;-88
2021/10/26 04:24:35;;;;;;;78.82;38.88;;;;;;;;;;5012751;28;20370;-88
2021/10/26 04:27:00;;;;;;;108.80;42.97;;;;;;;;;;5013148;28;20024;-88
2021/10/26 04:29:25;;;;;;;72.13;37.42;;;;;;;;;;5012809;28;20500;-87
2021/10/26 04:31:51;;;;;;;81.70;40.27;;;;;;;;;;5030358;28;20025;-87
2021/10/26 04:34:16;;;;;;;84.45;39.42;;;;;;;;;;5030449;28;20039;-87
2021/10/26 04:36:41;;;;;;;87.23;43.47;;;;;;;;;;5030484;28;20037;-87
2021/10/26 04:39:06;;;;;;;93.23;41.83;;;;;;;;;;5012640;28;20759;-87
2021/10/26 04:41:33;;;;;;;116.13;48.78;;;;;;;;;;5038577;28;20267;-87
2021/10/26 04:43:59;;;;;;;105.28;45.63;;;;;;;;;;5056021;28;20067;-87
2021/10/26 04:46:26;;;;;;;93.10;43.20;;;;;;;;;;5034122;28;20813;-87
2021/10/26 04:48:51;;;;;;;84.85;40.70;;;;;;;;;;5012744;28;20026;-87
2021/10/26 04:51:17;;;;;;;99.72;43.78;;;;;;;;;;5041692;28;20028;-87
2021/10/26 04:53:42;;;;;;;94.28;43.08;;;;;;;;;;5050148;28;20021;-87
2021/10/26 04:56:08;;;;;;;86.45;42.67;;;;;;;;;;5013577;28;20026;-87
2021/10/26 04:58:33;;;;;;;105.88;46.28;;;;;;;;;;5012419;28;20026;-87
2021/10/26 05:00:58;;;;;;;90.43;45.43;;;;;;;;;;5039080;28;20029;-87
2021/10/26 05:03:23;;;;;;;121.57;48.42;;;;;;;;;;5039553;28;20310;-87
2021/10/26 05:05:48;;;;;;;93.80;42.13;;;;;;;;;;5030099;28;20076;-87
2021/10/26 05:08:14;;;;;;;92.38;43.70;;;;;;;;;;5028951;28;20048;-87
2021/10/26 05:10:39;;;;;;;136.40;48.67;;;;;;;;;;5036430;28;20024;-87
2021/10/26 05:13:04;;;;;;;129.25;48.92;;;;;;;;;;5022040;28;20268;-87
2021/10/26 05:15:30;;;;;;;91.13;42.67;;;;;;;;;;5029756;28;20501;-87
2021/10/26 05:17:57;;;;;;;98.80;45.58;;;;;;;;;;5046437;28;20021;-87
2021/10/26 05:20:23;;;;;;;95.30;42.60;;;;;;;;;;5015745;28;20400;-87
2021/10/26 05:22:51;;;;;;;103.97;44.50;;;;;;;;;;5036493;28;20017;-87
2021/10/26 05:25:16;;;;;;;112.47;45.13;;;;;;;;;;5035283;28;20037;-87
2021/10/26 05:27:42;;;;;;;110.18;46.22;;;;;;;;;;5053658;28;20028;-87
2021/10/26 05:30:07;;;;;;;105.63;47.13;;;;;;;;;;5034949;28;20060;-87
2021/10/26 05:32:33;;;;;;;127.43;48.58;;;;;;;;;;5015944;28;20116;-86
2021/10/26 05:34:58;;;;;;;82.35;39.88;;;;;;;;;;5042687;28;20842;-87
2021/10/26 05:37:24;;;;;;;79.97;38.83;;;;;;;;;;5031879;28;20480;-87
2021/10/26 05:39:49;;;;;;;96.10;41.17;;;;;;;;;;5035403;28;20301;-87
2021/10/26 05:42:14;;;;;;;75.55;38.25;;;;;;;;;;5062826;28;20028;-87
2021/10/26 05:44:39;;;;;;;206.75;55.45;;;;;;;;;;5046881;28;20740;-87
2021/10/26 05:47:04;;;;;;;85.03;40.50;;;;;;;;;;5033140;28;20507;-87
2021/10/26 05:49:30;;;;;;;71.10;36.00;;;;;;;;;;5028556;28;20040;-87
2021/10/26 05:51:56;;;;;;;83.22;39.40;;;;;;;;;;5036438;28;20260;-87
2021/10/26 05:54:21;;;;;;;91.22;42.80;;;;;;;;;;5049168;28;20544;-87
2021/10/26 05:56:46;;;;;;;106.03;44.07;;;;;;;;;;5015187;28;20021;-87
2021/10/26 05:59:11;;;;;;;92.35;41.40;;;;;;;;;;5025844;28;20317;-87
2021/10/26 06:01:37;;;;;;;97.47;42.30;;;;;;;;;;5038590;28;20029;-87
2021/10/26 06:04:02;;;;;;;73.25;37.88;;;;;;;;;;5035254;28;20283;-87
2021/10/26 06:06:28;;;;;;;78.93;37.15;;;;;;;;;;5035027;28;20025;-87
2021/10/26 06:08:53;;;;;;;67.95;31.63;;;;;;;;;;5044433;28;20052;-87
2021/10/26 06:11:21;;;;;;;53.40;25.80;;;;;;;;;;5026770;28;20469;-87
2021/10/26 06:14:08;;;;;;;53.53;27.88;;;;;;;;;;5018924;28;20438;-87
2021/10/26 06:16:33;;;;;;;49.65;26.70;;;;;;;;;;5032281;28;20057;-87
2021/10/26 06:18:59;;;;;;;42.42;21.15;;;;;;;;;;5023993;28;20021;-87
2021/10/26 06:21:25;;;;;;;33.92;18.13;;;;;;;;;;5022253;28;20080;-86
2021/10/26 06:23:50;;;;;;;38.28;18.52;;;;;;;;;;5032546;28;20025;-87
2021/10/26 06:26:18;;;;;;;36.13;18.80;;;;;;;;;;5017882;28;20021;-87
2021/10/26 06:28:43;;;;;;;31.90;17.38;;;;;;;;;;5032265;28;20537;-87
2021/10/26 06:31:08;;;;;;;42.55;17.95;;;;;;;;;;5051765;28;20051;-86
2021/10/26 06:33:33;;;;;;;38.35;15.82;;;;;;;;;;5052183;28;20025;-87
2021/10/26 06:35:59;;;;;;;40.67;15.80;;;;;;;;;;5035222;28;20033;-87
2021/10/26 06:38:24;;;;;;;31.10;15.00;;;;;;;;;;5047709;28;20339;-86
2021/10/26 06:40:49;;;;;;;34.77;15.83;;;;;;;;;;5032240;28;20256;-87
2021/10/26 06:43:15;;;;;;;33.30;16.38;;;;;;;;;;5043424;28;20930;-87
2021/10/26 06:45:40;;;;;;;37.75;15.02;;;;;;;;;;5018896;28;20030;-87
2021/10/26 06:48:06;;;;;;;46.60;20.92;;;;;;;;;;5035117;28;20079;-86
2021/10/26 06:50:31;;;;;;;55.10;23.42;;;;;;;;;;5014334;28;20038;-86
2021/10/26 06:52:57;;;;;;;43.03;20.25;;;;;;;;;;5041117;28;20126;-86
2021/10/26 06:55:23;;;;;;;56.15;24.75;;;;;;;;;;5039684;28;20165;-87
2021/10/26 06:57:49;;;;;;;58.70;25.98;;;;;;;;;;5032104;28;20761;-86
2021/10/26 07:00:15;;;;;;;56.33;25.73;;;;;;;;;;5017155;28;20031;-87
2021/10/26 07:02:51;;;;;;;40.10;23.70;;;;;;;;;;5027486;28;20028;-87
2021/10/26 07:05:21;;;;;;;54.25;23.70;;;;;;;;;;5043980;28;20029;-86
2021/10/26 07:07:47;;;;;;;85.95;30.52;;;;;;;;;;5041346;28;20046;-86
2021/10/26 07:10:12;;;;;;;65.53;30.02;;;;;;;;;;5030919;28;20378;-87
2021/10/26 07:12:37;;;;;;;67.03;28.85;;;;;;;;;;5037888;28;20021;-86
2021/10/26 07:15:06;;;;;;;56.30;26.02;;;;;;;;;;5051252;28;20156;-86
2021/10/26 07:17:31;;;;;;;37.67;16.65;;;;;;;;;;5034172;28;20599;-87
2021/10/26 07:19:57;;;;;;;34.40;16.45;;;;;;;;;;5035824;28;20029;-86
2021/10/26 07:22:22;;;;;;;41.85;18.42;;;;;;;;;;5017636;28;20412;-87
2021/10/26 07:24:55;;;;;;;37.45;18.13;;;;;;;;;;5051183;28;20029;-86
2021/10/26 07:27:21;;;;;;;39.50;18.80;;;;;;;;;;5039512;28;20041;-86
2021/10/26 07:29:46;;;;;;;47.83;21.17;;;;;;;;;;5042027;28;20052;-87
2021/10/26 07:32:11;;;;;;;39.77;19.30;;;;;;;;;;5050192;28;20044;-87
2021/10/26 07:34:36;;;;;;;44.23;21.40;;;;;;;;;;5033194;28;20271;-87
2021/10/26 07:37:01;;;;;;;46.70;21.67;;;;;;;;;;5051534;28;20283;-87
2021/10/26 07:41:56;;;;;;;54.73;21.97;;;;;;;;;;5037180;28;20041;-86
2021/10/26 07:44:22;;;;;;;53.53;22.70;;;;;;;;;;5019566;28;20381;-86
2021/10/26 07:46:47;;;;;;;47.13;22.27;;;;;;;;;;5044512;28;20032;-87
2021/10/26 07:49:13;;;;;;;53.65;23.00;;;;;;;;;;5043184;28;20021;-87
2021/10/26 07:51:38;;;;;;;48.10;20.75;;;;;;;;;;5035019;28;20036;-87
2021/10/26 07:54:03;;;;;;;46.58;20.70;;;;;;;;;;5031193;28;20070;-87
2021/10/26 07:56:28;;;;;;;50.47;22.67;;;;;;;;;;5017704;28;20468;-87
2021/10/26 07:58:55;;;;;;;43.33;19.75;;;;;;;;;;5032519;28;20074;-87
2021/10/26 08:01:20;;;;;;;40.15;19.08;;;;;;;;;;5050825;28;20044;-87
2021/10/26 08:03:45;;;;;;;34.07;17.37;;;;;;;;;;5017356;28;20068;-87
2021/10/26 08:06:10;;;;;;;37.13;15.33;;;;;;;;;;5049326;28;20342;-87
2021/10/26 08:08:36;;;;;;;30.70;14.50;;;;;;;;;;5050856;28;20267;-87
2021/10/26 08:11:02;;;;;;;29.43;12.67;;;;;;;;;;5055585;28;20246;-87
2021/10/26 08:13:27;;;;;;;28.77;12.30;;;;;;;;;;5019109;28;20387;-87
2021/10/26 08:15:53;;;;;;;24.90;10.52;;;;;;;;;;5028200;28;20144;-87
2021/10/26 08:18:19;;;;;;;21.88;8.65;;;;;;;;;;5028232;28;20370;-87
2021/10/26 08:20:46;;;;;;;21.50;8.23;;;;;;;;;;5019636;28;20017;-87
2021/10/26 08:23:11;;;;;;;22.05;8.18;;;;;;;;;;5038661;28;20092;-87
2021/10/26 08:25:39;;;;;;;20.70;7.35;;;;;;;;;;5012553;28;20128;-87
2021/10/26 08:28:09;;;;;;;26.50;7.30;;;;;;;;;;5012680;28;20025;-87
2021/10/26 08:31:15;;;;;;;22.33;7.28;;;;;;;;;;5018005;28;20108;-87
2021/10/26 08:35:56;;;;;;;18.77;5.53;;;;;;;;;;5035076;28;20033;-87
2021/10/26 08:38:22;;;;;;;23.07;6.47;;;;;;;;;;5038023;28;20022;-87
2021/10/26 08:40:47;;;;;;;25.23;5.60;;;;;;;;;;5042598;28;20390;-87
2021/10/26 08:43:14;;;;;;;20.02;5.03;;;;;;;;;;5012251;28;20045;-87
2021/10/26 08:45:44;;;;;;;20.55;5.10;;;;;;;;;;5012340;28;20033;-87
2021/10/26 08:48:13;;;;;;;15.88;4.30;;;;;;;;;;5028046;28;20503;-87
2021/10/26 08:50:38;;;;;;;20.92;4.70;;;;;;;;;;5030076;28;20452;-87
2021/10/26 08:53:04;;;;;;;18.80;4.28;;;;;;;;;;5039644;28;20100;-87
2021/10/26 08:55:31;;;;;;;18.95;3.90;;;;;;;;;;5041205;28;20021;-87
2021/10/26 08:57:56;;;;;;;17.00;4.20;;;;;;;;;;5020635;28;20034;-87
2021/10/26 09:00:23;;;;;;;17.02;4.07;;;;;;;;;;5056312;28;20472;-87
2021/10/26 09:02:49;;;;;;;14.48;3.75;;;;;;;;;;5039096;28;20025;-87
2021/10/26 09:05:24;;;;;;;19.05;4.95;;;;;;;;;;5026239;28;20142;-87
2021/10/26 09:07:59;;;;;;;21.10;5.93;;;;;;;;;;5050016;28;20021;-87
2021/10/26 09:10:27;;;;;;;40.42;5.78;;;;;;;;;;5034144;28;20041;-87
2021/10/26 09:18:32;;;;;;;26.27;6.15;;;;;;;;;;5034334;28;20041;-88
2021/10/26 09:20:58;;;;;;;26.08;4.80;;;;;;;;;;5037649;28;20017;-88
2021/10/26 09:23:27;;;;;;;25.98;5.65;;;;;;;;;;5035646;28;20021;-88
2021/10/26 09:26:00;;;;;;;13.27;5.28;;;;;;;;;;5037265;28;20029;-88
2021/10/26 09:28:27;;;;;;;21.75;5.78;;;;;;;;;;5053529;28;20044;-88
2021/10/26 09:30:58;;;;;;;19.55;4.72;;;;;;;;;;5027187;28;20025;-88
2021/10/26 09:33:31;;;;;;;17.30;4.72;;;;;;;;;;5046294;28;20029;-88
2021/10/26 09:36:16;;;;;;;15.38;4.90;;;;;;;;;;5018628;28;20040;-88
2021/10/26 09:38:41;;;;;;;12.57;3.78;;;;;;;;;;5015834;28;20032;-88
2021/10/26 09:41:06;;;;;;;13.60;2.77;;;;;;;;;;5025421;28;20025;-88
2021/10/26 09:43:32;;;;;;;11.35;3.60;;;;;;;;;;5057131;28;20759;-88
2021/10/26 09:46:03;;;;;;;10.80;3.45;;;;;;;;;;5036346;28;20026;-88
2021/10/26 09:48:29;;;;;;;;;;;;;;;;;;5038963;28;20029;-88
2021/10/26 09:51:00;;;;;;;14.50;3.58;;;;;;;;;;5035034;28;19959;-87
2021/10/26 09:53:30;;;;;;;6.55;2.38;;;;;;;;;;5022408;28;20025;-87
2021/10/26 09:56:01;;;;;;;9.52;3.28;;;;;;;;;;5015485;28;20132;-87
2021/10/26 09:58:29;;;;;;;7.00;2.70;;;;;;;;;;5030942;28;20020;-87
2021/10/26 10:01:03;;;;;;;12.00;3.20;;;;;;;;;;5041403;28;20752;-88
2021/10/26 10:03:28;;;;;;;8.25;2.65;;;;;;;;;;5060336;28;20028;-88
2021/10/26 10:05:54;;;;;;;6.03;2.92;;;;;;;;;;5018554;28;20029;-88
2021/10/26 10:08:24;;;;;;;10.52;2.60;;;;;;;;;;5049135;28;20025;-88
2021/10/26 10:10:54;;;;;;;5.25;2.60;;;;;;;;;;5013773;28;20029;-88
2021/10/26 10:13:19;;;;;;;10.10;2.45;;;;;;;;;;5015515;28;20461;-87
2021/10/26 10:15:48;;;;;;;8.18;2.72;;;;;;;;;;5014953;28;20053;-88
2021/10/26 10:18:18;;;;;;;8.55;3.10;;;;;;;;;;5032857;28;20071;-88
2021/10/26 10:20:45;;;;;;;10.60;2.88;;;;;;;;;;5014815;28;20436;-88
2021/10/26 10:23:11;;;;;;;10.57;2.95;;;;;;;;;;5028372;28;20048;-88
2021/10/26 10:25:37;;;;;;;6.18;2.60;;;;;;;;;;5020158;28;20204;-88
2021/10/26 10:28:02;;;;;;;9.50;2.92;;;;;;;;;;5046506;23;20057;-88
2021/10/26 10:30:28;;;;;;;16.17;2.97;;;;;;;;;;5033752;28;20094;-88
2021/10/26 10:32:54;;;;;;;8.32;2.17;;;;;;;;;;5025908;28;20014;-88
2021/10/26 10:35:20;;;;;;;8.40;2.40;;;;;;;;;;5026296;28;20062;-88
2021/10/26 10:37:49;;;;;;;11.60;2.40;;;;;;;;;;5034468;28;20049;-88
2021/10/26 10:40:21;;;;;;;7.53;2.50;;;;;;;;;;5048987;28;20060;-88
2021/10/26 10:42:48;;;;;;;9.20;1.98;;;;;;;;;;5022218;28;20048;-88
2021/10/26 10:45:36;;;;;;;10.65;2.33;;;;;;;;;;5032450;28;20033;-88
2021/10/26 10:48:02;;;;;;;5.57;2.50;;;;;;;;;;5033493;28;20021;-88
2021/10/26 10:50:29;;;;;;;9.77;2.70;;;;;;;;;;5047088;28;20018;-88
2021/10/26 10:53:12;;;;;;;11.52;2.65;;;;;;;;;;5023011;28;20029;-88
2021/10/26 10:55:38;;;;;;;10.13;2.92;;;;;;;;;;5033848;28;20025;-88
2021/10/26 10:58:23;;;;;;;10.80;2.60;;;;;;;;;;5032342;28;20021;-88
2021/10/26 11:00:48;;;;;;;11.13;3.53;;;;;;;;;;5032005;28;20025;-88
2021/10/26 11:03:34;;;;;;;9.30;2.92;;;;;;;;;;5031946;28;20025;-88
2021/10/26 11:05:59;;;;;;;13.88;3.13;;;;;;;;;;5016900;28;20500;-88
2021/10/26 11:08:46;;;;;;;12.00;3.35;;;;;;;;;;5018477;28;20016;-88
2021/10/26 11:11:11;;;;;;;12.57;4.20;;;;;;;;;;5040635;28;20025;-88
2021/10/26 11:13:36;;;;;;;15.50;5.88;;;;;;;;;;5031770;28;20064;-88
2021/10/26 11:16:08;;;;;;;14.48;4.93;;;;;;;;;;5049303;28;20100;-88
2021/10/26 11:18:38;;;;;;;7.65;3.33;;;;;;;;;;5028136;28;20021;-88
2021/10/26 11:21:04;;;;;;;13.70;3.88;;;;;;;;;;5013452;28;20072;-88
2021/10/26 11:23:32;;;;;;;10.77;3.38;;;;;;;;;;5050102;28;20070;-88
2021/10/26 11:25:58;;;;;;;12.95;4.07;;;;;;;;;;5038702;28;20029;-88
2021/10/26 11:28:25;;;;;;;12.80;3.85;;;;;;;;;;5013524;28;20095;-88
2021/10/26 11:30:59;;;;;;;9.00;3.20;;;;;;;;;;5013472;28;20018;-88
2021/10/26 11:33:25;;;;;;;6.88;2.90;;;;;;;;;;5025972;28;20060;-87
2021/10/26 11:35:55;;;;;;;9.73;3.13;;;;;;;;;;5017128;28;20049;-88
2021/10/26 11:38:25;;;;;;;7.68;4.35;;;;;;;;;;5013401;28;20026;-87
2021/10/26 11:40:55;;;;;;;14.63;4.00;;;;;;;;;;5038936;28;20031;-88
2021/10/26 11:43:21;;;;;;;17.23;7.03;;;;;;;;;;5038912;28;20469;-88
2021/10/26 11:45:55;;;;;;;17.13;6.18;;;;;;;;;;5028485;28;20024;-88
2021/10/26 11:48:39;;;;;;;11.13;5.47;;;;;;;;;;5036577;28;20024;-87
2021/10/26 11:51:23;;;;;;;11.93;4.82;;;;;;;;;;5022758;28;20034;-88
2021/10/26 11:53:51;;;;;;;16.88;5.35;;;;;;;;;;5046832;28;20025;-87
2021/10/26 11:56:19;;;;;;;13.63;4.97;;;;;;;;;;5031027;28;20783;-88
2021/10/26 11:59:01;;;;;;;10.27;3.72;;;;;;;;;;5037540;28;20017;-87
2021/10/26 12:01:26;;;;;;;;;;;;;;;;;;5020482;28;20026;-87
2021/10/26 12:03:51;;;;;;;9.50;4.10;;;;;;;;;;5046905;28;19971;-87
2021/10/26 12:06:32;;;;;;;9.65;4.07;;;;;;;;;;5032438;28;20512;-87
2021/10/26 12:08:59;;;;;;;11.98;4.43;;;;;;;;;;5023806;28;20153;-87
2021/10/26 12:11:28;;;;;;;8.38;3.88;;;;;;;;;;5045852;28;20005;-87
2021/10/26 12:14:13;;;;;;;10.50;4.68;;;;;;;;;;5035757;28;20100;-87
2021/10/26 12:16:38;;;;;;;8.75;3.25;;;;;;;;;;5036928;28;20040;-87
2021/10/26 12:19:03;;;;;;;12.30;3.03;;;;;;;;;;5022871;28;20017;-88
2021/10/26 12:21:29;;;;;;;6.22;2.88;;;;;;;;;;5025790;28;20075;-87
2021/10/26 12:23:54;;;;;;;6.28;2.67;;;;;;;;;;5032665;28;20568;-87
2021/10/26 12:26:19;;;;;;;10.93;2.88;;;;;;;;;;5046776;28;20020;-87
2021/10/26 12:28:55;;;;;;;5.20;2.30;;;;;;;;;;5037522;28;20055;-87
2021/10/26 12:31:21;;;;;;;5.38;2.40;;;;;;;;;;5052994;28;20254;-87
2021/10/26 12:33:56;;;;;;;7.10;2.28;;;;;;;;;;5032371;28;20025;-87
2021/10/26 12:36:21;;;;;;;7.38;1.77;;;;;;;;;;5016810;28;20045;-87
2021/10/26 12:38:47;;;;;;;3.57;1.50;;;;;;;;;;5033431;28;20508;-87
2021/10/26 12:41:14;;;;;;;3.83;1.60;;;;;;;;;;5032661;28;20267;-87
2021/10/26 12:43:40;;;;;;;6.60;2.00;;;;;;;;;;5017438;28;20017;-87
2021/10/26 12:46:19;;;;;;;6.22;1.60;;;;;;;;;;5028869;28;20021;-87
2021/10/26 12:48:44;;;;;;;5.13;1.30;;;;;;;;;;5012574;28;20105;-87
2021/10/26 12:51:10;;;;;;;3.47;1.38;;;;;;;;;;5023086;28;20056;-87
2021/10/26 12:53:37;;;;;;;5.22;1.60;;;;;;;;;;5020564;28;20382;-87
2021/10/26 12:56:02;;;;;;;3.22;1.40;;;;;;;;;;5048382;28;20017;-87
2021/10/26 12:58:35;;;;;;;4.00;1.50;;;;;;;;;;5032224;28;20068;-87
2021/10/26 13:01:01;;;;;;;4.10;1.70;;;;;;;;;;5040634;28;20029;-87
2021/10/26 13:03:27;;;;;;;6.85;2.08;;;;;;;;;;5024941;28;20027;-87
2021/10/26 13:05:53;;;;;;;4.22;1.98;;;;;;;;;;5049987;28;20017;-87
2021/10/26 13:08:21;;;;;;;5.43;2.20;;;;;;;;;;5046256;28;20056;-87
2021/10/26 13:10:47;;;;;;;5.03;1.65;;;;;;;;;;5020891;28;20013;-87
2021/10/26 13:13:14;;;;;;;3.83;1.70;;;;;;;;;;5050778;28;20160;-87
2021/10/26 13:15:43;;;;;;;7.72;1.27;;;;;;;;;;5044642;28;20017;-87
2021/10/26 13:18:11;;;;;;;2.95;1.30;;;;;;;;;;5029604;28;20021;-87
2021/10/26 13:20:48;;;;;;;8.00;1.42;;;;;;;;;;5017948;28;20025;-87
2021/10/26 13:23:14;;;;;;;6.43;1.52;;;;;;;;;;5049863;28;20507;-87
2021/10/26 13:25:47;;;;;;;5.20;1.27;;;;;;;;;;5050557;28;20032;-87
2021/10/26 13:28:14;;;;;;;3.65;1.40;;;;;;;;;;5015216;28;20087;-87
2021/10/26 13:30:45;;;;;;;9.93;1.98;;;;;;;;;;5049844;28;20027;-87
2021/10/26 13:33:10;;;;;;;2.58;1.30;;;;;;;;;;5060065;28;20080;-87
2021/10/26 13:35:35;;;;;;;3.80;1.23;;;;;;;;;;5021555;28;20066;-87
2021/10/26 13:38:01;;;;;;;5.50;1.85;;;;;;;;;;5047349;28;20017;-88
2021/10/26 13:40:26;;;;;;;5.13;1.20;;;;;;;;;;5049750;28;20024;-87
2021/10/26 13:42:51;;;;;;;2.28;1.50;;;;;;;;;;5057596;28;20021;-87
2021/10/26 13:45:16;;;;;;;2.72;1.13;;;;;;;;;;5022506;28;20033;-87
2021/10/26 13:47:45;;;;;;;4.35;1.30;;;;;;;;;;5034042;28;20477;-87
2021/10/26 13:50:11;;;;;;;2.28;1.52;;;;;;;;;;5015363;28;20372;-87
2021/10/26 13:52:37;;;;;;;5.75;1.30;;;;;;;;;;5039423;28;20100;-87
2021/10/26 13:55:02;;;;;;;4.63;1.27;;;;;;;;;;5042557;28;20473;-88
2021/10/26 13:57:28;;;;;;;2.92;1.40;;;;;;;;;;5035377;28;20055;-87
2021/10/26 13:59:53;;;;;;;6.20;1.67;;;;;;;;;;5055538;28;20040;-87
2021/10/26 14:02:19;;;;;;;3.92;1.50;;;;;;;;;;5018484;28;20071;-87
2021/10/26 14:04:44;;;;;;;5.97;2.03;;;;;;;;;;5037975;28;20028;-87
2021/10/26 14:07:10;;;;;;;4.22;2.17;;;;;;;;;;5037963;28;20255;-87
2021/10/26 14:09:35;;;;;;;7.53;2.22;;;;;;;;;;5038024;28;20027;-87
2021/10/26 14:12:00;;;;;;;5.13;2.60;;;;;;;;;;5036375;28;20026;-87
2021/10/26 14:14:25;;;;;;;7.40;2.47;;;;;;;;;;5039474;28;20347;-88
2021/10/26 14:16:51;;;;;;;5.15;3.05;;;;;;;;;;5055519;28;20258;-87
2021/10/26 14:19:16;;;;;;;7.68;3.30;;;;;;;;;;5045420;28;20049;-87
2021/10/26 14:21:41;;;;;;;9.90;3.50;;;;;;;;;;5033189;28;20484;-87
2021/10/26 14:24:06;;;;;;;9.57;4.13;;;;;;;;;;5036425;28;20479;-87
2021/10/26 14:26:32;;;;;;;12.37;3.90;;;;;;;;;;5031413;28;20676;-88
2021/10/26 14:28:57;;;;;;;10.45;3.70;;;;;;;;;;5043780;28;20287;-88
2021/10/26 14:31:23;;;;;;;10.43;3.60;;;;;;;;;;5042871;28;20082;-88
2021/10/26 14:33:48;;;;;;;13.70;4.55;;;;;;;;;;5049414;28;20108;-88